Time;durP1;ratioP1;P1;durP2;ratioP2;P2;SDS_P1;SDS_P2;PMS_P1;PMS_P2;Temp;Humidity;BMP_temperature;BMP_pressure;BME280_temperature;BME280_humidity;BME280_pressure;Samples;Min_cycle;Max_cycle;Signal;HPM_P1;HPM_P2
2021/06/17 00:06:06;;;;;;;10.57;5.33;;;;;;;18.30;54.11;99865.13;531856;1087;116492;-61
2021/06/17 00:16:12;;;;;;;5.50;4.20;;;;;;;18.18;54.26;99861.77;532528;1088;116217;-60
2021/06/17 00:26:19;;;;;;;5.93;4.87;;;;;;;18.04;54.62;99863.88;532600;1087;115800;-61
2021/06/17 00:36:25;;;;;;;7.73;5.50;;;;;;;17.89;54.96;99866.08;524553;1087;116376;-60
2021/06/17 00:46:32;;;;;;;5.00;4.50;;;;;;;17.73;55.05;99865.80;530448;1089;116309;-61
2021/06/17 00:56:39;;;;;;;7.30;4.50;;;;;;;17.60;55.45;99856.28;531868;1088;117184;-59
2021/06/17 01:06:46;;;;;;;7.80;5.33;;;;;;;17.46;55.92;99856.66;532560;1087;117044;-60
2021/06/17 01:17:00;;;;;;;6.43;5.80;;;;;;;17.37;56.63;99860.98;521086;1087;116229;-61
2021/06/17 01:27:34;;;;;;;8.30;5.80;;;;;;;17.22;57.32;99844.59;514210;1088;115780;-59
2021/06/17 01:37:43;;;;;;;7.97;6.47;;;;;;;17.07;58.22;99831.70;520111;1085;115662;-60
2021/06/17 01:47:52;;;;;;;6.73;5.47;;;;;;;16.90;58.50;99849.06;522314;1087;115905;-60
2021/06/17 01:58:02;;;;;;;8.50;6.90;;;;;;;16.73;59.70;99850.52;517541;1087;116122;-60
2021/06/17 02:08:10;;;;;;;10.40;7.67;;;;;;;16.64;60.47;99853.95;517402;1089;117520;-59
2021/06/17 02:18:21;;;;;;;9.33;7.57;;;;;;;16.57;61.21;99852.82;521207;1088;116317;-59
2021/06/17 02:28:33;;;;;;;11.20;7.33;;;;;;;16.51;61.48;99852.36;518494;1088;115993;-61
2021/06/17 02:38:42;;;;;;;10.50;7.73;;;;;;;16.52;62.13;99866.46;531763;1089;116360;-62
2021/06/17 02:48:49;;;;;;;12.27;8.47;;;;;;;16.60;62.58;99869.28;528251;1087;116547;-60
2021/06/17 02:59:10;;;;;;;9.37;7.97;;;;;;;16.86;62.99;99874.18;532511;1088;116112;-60
2021/06/17 03:09:20;;;;;;;10.67;9.57;;;;;;;17.20;62.64;99871.28;527915;1087;115961;-60
2021/06/17 03:19:29;;;;;;;10.07;9.07;;;;;;;17.43;62.72;99876.38;518763;1087;116668;-60
2021/06/17 03:29:39;;;;;;;9.77;8.23;;;;;;;17.83;62.32;99871.11;531862;1089;117239;-61
2021/06/17 03:39:47;;;;;;;13.10;8.73;;;;;;;18.62;61.35;99872.75;532564;1087;116291;-61
2021/06/17 03:49:55;;;;;;;9.93;8.45;;;;;;;19.36;60.85;99866.73;532553;1087;116523;-61
2021/06/17 04:00:00;;;;;;;;;;;;;;;25.01;54.70;99860.39;531850;1088;116172;-61
2021/06/17 04:10:11;;;;;;;8.77;7.37;;;;;;;28.89;47.44;99862.02;532914;1087;102227;-61
2021/06/17 04:20:23;;;;;;;8.57;7.80;;;;;;;31.52;42.00;99870.73;532537;1087;116365;-61
2021/06/17 04:30:31;;;;;;;8.97;7.87;;;;;;;33.03;38.00;99864.22;531835;1088;116586;-61
2021/06/17 04:40:38;;;;;;;10.60;7.20;;;;;;;34.48;34.60;99872.19;527900;1087;116151;-61
2021/06/17 04:50:45;;;;;;;9.40;7.87;;;;;;;36.20;31.93;99875.73;523857;1087;116370;-61
2021/06/17 05:00:52;;;;;;;10.83;7.57;;;;;;;37.56;30.37;99872.50;532505;1087;116747;-62
2021/06/17 05:11:00;;;;;;;8.38;7.68;;;;;;;39.62;27.75;99874.97;532499;1087;116095;-61
2021/06/17 05:21:08;;;;;;;8.70;7.83;;;;;;;40.84;25.80;99875.98;531736;1087;116291;-61
2021/06/17 05:31:14;;;;;;;10.48;9.33;;;;;;;43.22;23.40;99886.80;532494;1088;116355;-61
2021/06/17 05:41:21;;;;;;;8.28;7.00;;;;;;;44.06;22.24;99872.60;530575;1087;116668;-61
2021/06/17 05:51:27;;;;;;;7.90;6.77;;;;;;;45.04;20.32;99875.41;531792;1087;116119;-61
2021/06/17 06:01:34;;;;;;;8.27;7.47;;;;;;;44.77;19.76;99882.81;532616;1087;116919;-61
2021/06/17 06:11:45;;;;;;;6.75;6.15;;;;;;;45.93;18.93;99898.34;525160;1089;116289;-60
2021/06/17 06:21:52;;;;;;;7.83;7.18;;;;;;;46.36;17.88;99896.58;532517;1087;116211;-62
2021/06/17 06:32:00;;;;;;;6.90;6.30;;;;;;;47.50;17.51;99900.59;532438;1087;117529;-59
2021/06/17 06:42:09;;;;;;;8.33;7.50;;;;;;;49.06;16.08;99902.12;531799;1088;117029;-61
2021/06/17 06:52:16;;;;;;;7.65;7.05;;;;;;;49.49;15.55;99908.95;532520;1089;116061;-61
2021/06/17 07:02:23;;;;;;;6.60;6.10;;;;;;;50.69;15.43;99912.02;532449;1088;116348;-59
2021/06/17 07:12:29;;;;;;;7.35;6.65;;;;;;;52.11;13.69;99926.84;531705;1087;116049;-59
2021/06/17 07:22:36;;;;;;;8.28;7.68;;;;;;;53.06;13.75;99914.24;528023;1087;116633;-61
2021/06/17 07:32:44;;;;;;;9.20;8.50;;;;;;;53.44;13.05;99929.15;531139;1090;116448;-61
2021/06/17 07:42:51;;;;;;;8.80;7.98;;;;;;;53.18;11.84;99932.83;532523;1087;115786;-61
2021/06/17 07:52:58;;;;;;;10.23;6.60;;;;;;;44.38;15.80;99925.99;532597;1089;116740;-60
2021/06/17 08:03:05;;;;;;;8.90;7.20;;;;;;;38.90;20.37;99942.86;520428;1087;116114;-62
2021/06/17 08:13:12;;;;;;;7.10;6.40;;;;;;;35.16;24.39;99933.94;532471;1088;116075;-64
2021/06/17 08:23:21;;;;;;;7.45;6.75;;;;;;;34.22;25.95;99946.20;518052;1089;116000;-59
2021/06/17 08:33:33;;;;;;;9.40;7.03;;;;;;;33.17;27.62;99943.66;531596;1088;117225;-61
2021/06/17 08:43:40;;;;;;;7.20;6.40;;;;;;;32.43;28.47;99953.95;520883;1088;116095;-62
2021/06/17 08:53:48;;;;;;;9.13;8.13;;;;;;;31.38;30.20;99965.02;530357;1087;116201;-64
2021/06/17 09:03:58;;;;;;;8.13;6.53;;;;;;;31.26;30.77;99956.80;532507;1087;116175;-60
2021/06/17 09:14:18;;;;;;;7.30;6.37;;;;;;;30.94;31.15;99962.36;525522;1087;116165;-62
2021/06/17 09:24:34;;;;;;;8.77;6.83;;;;;;;30.64;32.07;99963.87;531853;1086;116418;-62
2021/06/17 09:34:40;;;;;;;7.60;5.80;;;;;;;30.76;31.16;99955.85;532546;1087;116086;-63
2021/06/17 09:44:47;;;;;;;6.37;5.77;;;;;;;30.21;31.26;99949.20;531805;1087;116655;-66
2021/06/17 09:54:54;;;;;;;9.07;5.73;;;;;;;29.95;31.51;99932.06;516319;1087;116346;-64
2021/06/17 10:05:16;;;;;;;6.77;5.47;;;;;;;29.68;32.15;99931.39;514937;1089;116204;-64
2021/06/17 10:15:25;;;;;;;6.80;6.10;;;;;;;29.54;32.44;99926.06;530059;1088;116211;-67
2021/06/17 10:25:34;;;;;;;6.93;6.23;;;;;;;29.40;32.00;99927.14;532232;1088;117020;-62
2021/06/17 10:35:41;;;;;;;6.07;5.03;;;;;;;29.97;31.60;99921.84;531860;1089;115993;-62
2021/06/17 10:45:51;;;;;;;6.93;5.37;;;;;;;29.77;31.54;99911.16;527831;1087;116422;-64
2021/06/17 10:56:02;;;;;;;5.67;5.17;;;;;;;29.48;31.57;99907.98;532666;1085;116805;-63
2021/06/17 11:06:08;;;;;;;7.63;6.93;;;;;;;29.21;31.43;99911.63;531854;1087;116772;-64
2021/06/17 11:16:32;;;;;;;6.08;5.58;;;;;;;28.55;31.96;99885.55;529089;1087;116385;-65
2021/06/17 11:26:41;;;;;;;7.57;5.57;;;;;;;28.42;32.57;99884.53;531783;1087;116720;-63
2021/06/17 11:37:06;;;;;;;7.03;5.73;;;;;;;28.48;32.11;99899.91;517937;1089;177514;-65
2021/06/17 11:47:15;;;;;;;5.70;4.93;;;;;;;28.40;32.51;99881.22;532611;1089;116090;-62
2021/06/17 11:57:28;;;;;;;6.27;4.77;;;;;;;28.61;31.97;99871.22;531778;1088;116012;-63
2021/06/17 12:07:36;;;;;;;6.23;5.63;;;;;;;28.35;32.03;99856.73;531843;1088;116267;-63
2021/06/17 12:17:45;;;;;;;11.07;5.93;;;;;;;28.11;32.25;99867.91;531816;1088;116384;-62
2021/06/17 12:27:53;;;;;;;6.43;5.83;;;;;;;28.24;32.25;99867.11;529227;1088;116149;-62
2021/06/17 12:38:02;;;;;;;5.10;4.60;;;;;;;28.14;32.11;99861.27;529184;1087;116594;-62
2021/06/17 12:48:33;;;;;;;6.70;5.08;;;;;;;28.13;31.82;99850.67;521104;1087;116024;-64
2021/06/17 12:58:52;;;;;;;7.97;5.27;;;;;;;28.13;31.97;99845.27;530291;1087;117113;-63
2021/06/17 13:08:59;;;;;;;6.75;4.18;;;;;;;28.15;31.88;99843.19;527628;1087;116236;-62
2021/06/17 13:19:11;;;;;;;7.83;4.13;;;;;;;28.20;31.85;99848.84;520626;1087;115979;-63
2021/06/17 13:29:17;;;;;;;4.73;4.23;;;;;;;28.21;30.88;99845.91;517771;1087;115981;-62
2021/06/17 13:39:26;;;;;;;4.75;4.23;;;;;;;28.17;31.58;99835.74;528942;1087;116031;-63
2021/06/17 13:49:33;;;;;;;4.43;4.03;;;;;;;28.33;31.17;99826.38;526360;1088;115855;-63
2021/06/17 13:59:40;;;;;;;4.57;4.17;;;;;;;28.49;31.26;99825.95;529231;1088;116362;-62
2021/06/17 14:09:46;;;;;;;6.63;4.57;;;;;;;28.53;30.58;99819.08;530827;1089;116024;-62
2021/06/17 14:19:53;;;;;;;3.80;3.53;;;;;;;28.33;30.25;99808.33;519485;1087;115824;-63
2021/06/17 14:30:00;;;;;;;5.20;4.78;;;;;;;28.22;30.12;99812.52;530801;1086;116422;-64
2021/06/17 14:40:09;;;;;;;5.40;4.88;;;;;;;28.13;30.54;99802.09;532554;1087;164940;-62
2021/06/17 14:50:17;;;;;;;7.00;5.00;;;;;;;28.04;30.96;99801.48;532575;1087;116014;-63
2021/06/17 15:00:28;;;;;;;4.47;4.10;;;;;;;28.20;30.68;99806.47;519769;1087;115919;-63
2021/06/17 15:10:35;;;;;;;4.80;4.40;;;;;;;28.45;30.90;99791.48;532550;1087;115987;-63
2021/06/17 15:20:43;;;;;;;7.65;4.25;;;;;;;28.21;32.32;99781.13;531867;1089;116375;-63
2021/06/17 15:30:50;;;;;;;4.95;3.95;;;;;;;27.88;32.48;99789.23;528682;1089;116693;-63
2021/06/17 15:40:58;;;;;;;5.80;4.10;;;;;;;27.64;33.32;99778.84;532598;1089;116399;-66
2021/06/17 15:51:07;;;;;;;3.73;3.33;;;;;;;27.52;33.78;99785.86;531810;1089;116140;-62
2021/06/17 16:01:14;;;;;;;5.43;4.30;;;;;;;27.45;33.98;99771.55;523777;1087;117216;-61
2021/06/17 16:11:21;;;;;;;3.23;3.03;;;;;;;27.27;34.09;99781.89;524448;1087;115955;-62
2021/06/17 16:21:27;;;;;;;5.65;2.95;;;;;;;26.98;34.36;99775.78;531589;1087;116934;-62
2021/06/17 16:31:34;;;;;;;4.93;3.10;;;;;;;26.90;34.54;99775.98;532574;1088;115868;-62
2021/06/17 16:41:41;;;;;;;3.80;3.35;;;;;;;26.85;34.40;99790.02;530006;1087;116236;-62
2021/06/17 16:51:49;;;;;;;4.77;3.10;;;;;;;26.77;34.32;99783.95;521099;1087;115729;-70
2021/06/17 17:01:56;;;;;;;4.03;2.70;;;;;;;26.60;33.53;99794.23;532448;1085;116030;-66
2021/06/17 17:12:04;;;;;;;3.15;2.13;;;;;;;26.34;33.40;99795.74;531565;1087;116152;-76
2021/06/17 17:22:11;;;;;;;3.57;2.20;;;;;;;26.36;33.06;99789.14;529399;1087;116709;-76
2021/06/17 17:32:19;;;;;;;3.13;2.00;;;;;;;26.05;32.99;99798.41;527286;1087;116336;-70
2021/06/17 17:42:27;;;;;;;3.97;2.07;;;;;;;25.78;33.14;99798.20;525498;1089;116056;-63
2021/06/17 17:52:36;;;;;;;2.93;1.70;;;;;;;25.91;32.67;99802.03;523451;1087;10001387;-61
2021/06/17 18:02:43;;;;;;;8.10;2.50;;;;;;;25.92;32.11;99811.76;531681;1087;116439;-66
2021/06/17 18:12:51;;;;;;;3.18;2.30;;;;;;;25.26;31.81;99824.33;532399;1086;116056;-70
2021/06/17 18:22:58;;;;;;;3.47;2.27;;;;;;;24.80;32.43;99815.50;532410;1087;117687;-66
2021/06/17 18:33:06;;;;;;;4.50;2.27;;;;;;;24.42;32.25;99831.67;525472;1087;116552;-68
2021/06/17 18:43:13;;;;;;;5.38;2.00;;;;;;;24.05;32.61;99823.46;518539;1087;116008;-68
2021/06/17 18:53:19;;;;;;;4.57;1.43;;;;;;;23.65;32.96;99836.98;532473;1087;116589;-64
2021/06/17 19:03:26;;;;;;;4.73;2.10;;;;;;;23.35;33.41;99836.81;530481;1085;117112;-63
2021/06/17 19:13:32;;;;;;;1.70;1.60;;;;;;;23.03;33.85;99854.67;527077;1087;116352;-66
2021/06/17 19:23:54;;;;;;;2.60;2.13;;;;;;;22.66;34.63;99879.22;527759;1087;115966;-64
2021/06/17 19:34:00;;;;;;;2.58;2.00;;;;;;;22.36;34.93;99889.61;529660;1087;116722;-65
2021/06/17 19:44:08;;;;;;;3.30;2.33;;;;;;;22.13;35.66;99896.64;525988;1087;115683;-67
2021/06/17 19:54:24;;;;;;;2.53;2.07;;;;;;;21.89;36.17;99900.97;531680;1087;116083;-69
2021/06/17 20:04:32;;;;;;;2.93;2.63;;;;;;;21.68;36.68;99902.25;532394;1087;116539;-67
2021/06/17 20:14:39;;;;;;;3.35;2.30;;;;;;;21.51;37.44;99899.48;523394;1087;117613;-67
2021/06/17 20:24:46;;;;;;;4.13;2.23;;;;;;;21.32;38.19;99910.46;521035;1087;116355;-68
2021/06/17 20:34:53;;;;;;;4.67;2.20;;;;;;;21.14;38.94;99906.88;527565;1087;116693;-68
2021/06/17 20:44:59;;;;;;;7.17;3.30;;;;;;;20.91;39.42;99908.44;516201;1087;116583;-65
2021/06/17 20:55:10;;;;;;;3.77;3.33;;;;;;;20.74;40.31;99916.29;532323;1085;115893;-66
2021/06/17 21:05:17;;;;;;;3.33;2.80;;;;;;;20.63;40.58;99914.73;526254;1086;116319;-64
2021/06/17 21:15:25;;;;;;;7.13;3.37;;;;;;;20.47;40.90;99922.59;524271;1087;116487;-63
2021/06/17 21:25:32;;;;;;;2.67;2.43;;;;;;;20.22;41.30;99917.92;531221;1088;116056;-64
2021/06/17 21:35:39;;;;;;;5.20;3.35;;;;;;;19.99;41.59;99926.38;520472;1086;116451;-64
2021/06/17 21:45:46;;;;;;;5.00;2.37;;;;;;;19.79;42.31;99911.47;519048;1087;116645;-63
2021/06/17 21:55:53;;;;;;;5.53;2.90;;;;;;;19.59;42.90;99925.76;529206;1087;116261;-64
2021/06/17 22:06:01;;;;;;;5.33;3.17;;;;;;;19.40;43.41;99928.52;518477;1087;150093;-64
2021/06/17 22:16:08;;;;;;;4.58;3.33;;;;;;;19.23;43.82;99936.31;526732;1087;116417;-65
2021/06/17 22:26:15;;;;;;;3.30;3.00;;;;;;;19.06;44.53;99935.25;516281;1087;116647;-68
2021/06/17 22:36:22;;;;;;;4.23;3.10;;;;;;;18.86;44.81;99924.63;520398;1088;116692;-70
2021/06/17 22:46:29;;;;;;;10.17;2.93;;;;;;;18.62;45.50;99941.89;532520;1087;116586;-70
2021/06/17 22:56:36;;;;;;;10.10;3.70;;;;;;;18.40;46.06;99940.36;524550;1088;116835;-70
2021/06/17 23:06:43;;;;;;;5.70;3.20;;;;;;;18.15;46.87;99934.63;527070;1087;115739;-69
2021/06/17 23:16:49;;;;;;;3.77;3.37;;;;;;;17.94;47.41;99937.39;524059;1089;116032;-69
2021/06/17 23:26:56;;;;;;;4.20;3.90;;;;;;;17.78;48.12;99927.30;520979;1088;115980;-70
2021/06/17 23:37:02;;;;;;;3.60;3.30;;;;;;;17.68;48.58;99931.75;524348;1089;116106;-70
2021/06/17 23:47:09;;;;;;;3.93;3.37;;;;;;;17.58;48.80;99918.45;524704;1088;116794;-69
2021/06/17 23:57:16;;;;;;;3.70;2.90;;;;;;;17.45;49.29;99924.85;519721;1087;116502;-69
